createdAt,value
2023-01-10T00:00:13.602Z,14.86
2023-01-10T00:02:40.803Z,14.81
2023-01-10T00:05:07.777Z,14.85
2023-01-10T00:07:34.269Z,14.81
2023-01-10T00:10:01.307Z,14.83
2023-01-10T00:12:28.465Z,14.80
2023-01-10T00:14:55.243Z,14.80
2023-01-10T00:17:21.650Z,14.77
2023-01-10T00:19:48.424Z,14.80
2023-01-10T00:22:14.885Z,14.80
2023-01-10T00:24:41.600Z,14.76
2023-01-10T00:27:08.112Z,14.80
2023-01-10T00:29:34.936Z,14.78
2023-01-10T00:32:01.380Z,14.80
2023-01-10T00:34:28.413Z,14.80
2023-01-10T00:36:55.425Z,14.78
2023-01-10T00:39:21.971Z,14.79
2023-01-10T00:41:48.563Z,14.77
2023-01-10T00:44:15.376Z,14.78
2023-01-10T00:46:41.929Z,14.77
2023-01-10T00:49:08.737Z,14.74
2023-01-10T00:51:35.305Z,14.75
2023-01-10T00:54:02.008Z,14.77
2023-01-10T00:56:30.512Z,14.81
2023-01-10T00:58:57.463Z,14.76
2023-01-10T01:01:24.237Z,14.75
2023-01-10T01:03:50.830Z,14.77
2023-01-10T01:06:17.233Z,14.75
2023-01-10T01:08:44.031Z,14.72
2023-01-10T01:11:10.966Z,14.73
2023-01-10T01:13:37.864Z,14.74
2023-01-10T01:16:04.395Z,14.73
2023-01-10T01:18:31.211Z,14.72
2023-01-10T01:20:58.082Z,14.72
2023-01-10T01:23:24.795Z,14.71
2023-01-10T01:25:51.245Z,14.72
2023-01-10T01:28:17.705Z,14.69
2023-01-10T01:30:44.456Z,14.74
2023-01-10T01:33:10.957Z,14.71
2023-01-10T01:35:37.507Z,14.70
2023-01-10T01:38:04.101Z,14.72
2023-01-10T01:40:30.588Z,14.72
2023-01-10T01:42:57.101Z,14.72
2023-01-10T01:45:23.523Z,14.70
2023-01-10T01:47:50.375Z,14.69
2023-01-10T01:50:16.929Z,14.69
2023-01-10T01:52:43.964Z,14.72
2023-01-10T01:55:10.643Z,14.68
2023-01-10T01:57:37.183Z,14.70
2023-01-10T02:00:04.020Z,14.71
2023-01-10T02:02:31.137Z,14.72
2023-01-10T02:04:58.899Z,14.69
2023-01-10T02:07:25.695Z,14.69
2023-01-10T02:09:52.351Z,14.68
2023-01-10T02:12:19.251Z,14.66
2023-01-10T02:14:45.795Z,14.67
2023-01-10T02:17:12.514Z,14.65
2023-01-10T02:19:38.956Z,14.68
2023-01-10T02:22:05.512Z,14.67
2023-01-10T02:24:32.051Z,14.66
2023-01-10T02:26:58.624Z,14.65
2023-01-10T02:29:25.659Z,14.66
2023-01-10T02:31:52.179Z,14.63
2023-01-10T02:34:19.042Z,14.65
2023-01-10T02:36:45.891Z,14.64
2023-01-10T02:39:12.559Z,14.62
2023-01-10T02:41:39.164Z,14.64
2023-01-10T02:44:05.810Z,14.66
2023-01-10T02:46:32.630Z,14.66
2023-01-10T02:48:59.194Z,14.66
2023-01-10T02:51:25.731Z,14.63
2023-01-10T02:53:52.909Z,14.65
2023-01-10T02:56:19.411Z,14.64
2023-01-10T02:58:45.933Z,14.64
2023-01-10T03:01:12.736Z,14.63
2023-01-10T03:03:39.519Z,14.62
2023-01-10T03:06:05.957Z,14.62
2023-01-10T03:08:32.908Z,14.60
2023-01-10T03:10:59.487Z,14.60
2023-01-10T03:13:26.433Z,14.60
2023-01-10T03:15:53.248Z,14.61
2023-01-10T03:18:19.834Z,14.61
2023-01-10T03:20:47.074Z,14.63
2023-01-10T03:23:13.798Z,14.60
2023-01-10T03:25:40.585Z,14.61
2023-01-10T03:28:07.462Z,14.59
2023-01-10T03:30:34.081Z,14.58
2023-01-10T03:33:00.576Z,14.58
2023-01-10T03:35:27.652Z,14.58
2023-01-10T03:37:54.114Z,14.60
2023-01-10T03:40:20.961Z,14.62
2023-01-10T03:42:47.892Z,14.62
2023-01-10T03:45:14.437Z,14.59
2023-01-10T03:47:41.371Z,14.60
2023-01-10T03:50:07.863Z,14.58
2023-01-10T03:52:34.487Z,14.60
2023-01-10T03:55:00.871Z,14.58
2023-01-10T03:57:28.176Z,14.58
2023-01-10T03:59:55.075Z,14.57
2023-01-10T04:02:21.703Z,14.61
2023-01-10T04:04:48.205Z,14.58
2023-01-10T04:07:15.252Z,14.58
2023-01-10T04:09:42.101Z,14.56
2023-01-10T04:12:08.624Z,14.57
2023-01-10T04:14:35.150Z,14.56
2023-01-10T04:17:01.846Z,14.55
2023-01-10T04:19:28.358Z,14.54
2023-01-10T04:21:55.155Z,14.56
2023-01-10T04:24:22.505Z,14.56
2023-01-10T04:26:49.368Z,14.53
2023-01-10T04:29:15.916Z,14.52
2023-01-10T04:31:42.527Z,14.55
2023-01-10T04:34:09.430Z,14.57
2023-01-10T04:36:36.159Z,14.55
2023-01-10T04:39:02.712Z,14.55
2023-01-10T04:41:29.619Z,14.55
2023-01-10T04:43:56.740Z,14.52
2023-01-10T04:46:23.226Z,14.53
2023-01-10T04:48:49.706Z,14.54
2023-01-10T04:51:16.164Z,14.54
2023-01-10T04:53:42.717Z,14.55
2023-01-10T04:56:09.594Z,14.53
2023-01-10T04:58:36.613Z,14.53
2023-01-10T05:01:03.689Z,14.50
2023-01-10T05:03:30.322Z,14.51
2023-01-10T05:05:57.121Z,14.53
2023-01-10T05:08:23.661Z,14.50
2023-01-10T05:10:50.613Z,14.52
2023-01-10T05:13:18.094Z,14.50
2023-01-10T05:15:44.830Z,14.50
2023-01-10T05:18:11.670Z,14.51
2023-01-10T05:20:38.141Z,14.51
2023-01-10T05:23:05.104Z,14.52
2023-01-10T05:25:32.229Z,14.49
2023-01-10T05:27:59.203Z,14.51
2023-01-10T05:30:25.971Z,14.50
2023-01-10T05:32:52.554Z,14.51
2023-01-10T05:35:19.239Z,14.49
2023-01-10T05:37:45.784Z,14.49
2023-01-10T05:40:12.353Z,14.46
2023-01-10T05:42:39.562Z,14.51
2023-01-10T05:45:06.073Z,14.49
2023-01-10T05:47:32.546Z,14.48
2023-01-10T05:49:59.153Z,14.43
2023-01-10T05:52:25.682Z,14.45
2023-01-10T05:54:52.419Z,14.45
2023-01-10T05:57:19.291Z,14.47
2023-01-10T05:59:46.022Z,14.46
2023-01-10T06:02:12.591Z,14.45
2023-01-10T06:04:39.459Z,14.47
2023-01-10T06:07:06.231Z,14.43
2023-01-10T06:09:32.866Z,14.45
2023-01-10T06:11:59.258Z,14.44
2023-01-10T06:14:26.133Z,14.47
2023-01-10T06:16:53.526Z,14.47
2023-01-10T06:19:20.482Z,14.46
2023-01-10T06:21:47.759Z,14.44
2023-01-10T06:24:14.248Z,14.42
2023-01-10T06:26:41.381Z,14.44
2023-01-10T06:29:08.856Z,14.42
2023-01-10T06:31:35.435Z,14.45
2023-01-10T06:34:01.953Z,14.44
2023-01-10T06:36:28.452Z,14.42
2023-01-10T06:38:55.223Z,14.41
2023-01-10T06:41:21.705Z,14.44
2023-01-10T06:43:48.117Z,14.42
2023-01-10T06:46:14.793Z,14.40
2023-01-10T06:48:41.440Z,14.38
2023-01-10T06:51:07.924Z,14.40
2023-01-10T06:53:35.060Z,14.43
2023-01-10T06:56:01.606Z,14.41
2023-01-10T06:58:28.050Z,14.39
2023-01-10T07:00:54.744Z,14.39
2023-01-10T07:03:21.802Z,14.36
2023-01-10T07:05:48.422Z,14.36
2023-01-10T07:08:15.278Z,14.37
2023-01-10T07:10:42.121Z,14.40
2023-01-10T07:13:08.868Z,14.38
2023-01-10T07:15:35.218Z,14.39
2023-01-10T07:18:01.686Z,14.38
2023-01-10T07:20:28.294Z,14.38
2023-01-10T07:22:55.124Z,14.40
2023-01-10T07:25:21.551Z,14.38
2023-01-10T07:27:47.897Z,14.38
2023-01-10T07:30:14.783Z,14.41
2023-01-10T07:32:41.584Z,14.37
2023-01-10T07:35:08.350Z,14.34
2023-01-10T07:37:35.175Z,14.35
2023-01-10T07:40:02.360Z,14.34
2023-01-10T07:42:29.523Z,14.34
2023-01-10T07:44:56.318Z,14.33
2023-01-10T07:47:23.561Z,14.39
2023-01-10T07:49:50.313Z,14.36
2023-01-10T07:52:17.043Z,14.36
2023-01-10T07:54:43.743Z,14.36
2023-01-10T07:57:10.566Z,14.35
2023-01-10T07:59:37.197Z,14.33
2023-01-10T08:02:04.947Z,14.35
2023-01-10T08:04:31.891Z,14.35
2023-01-10T08:06:58.905Z,14.34
2023-01-10T08:09:25.732Z,14.36
2023-01-10T08:11:52.713Z,14.37
2023-01-10T08:14:19.393Z,14.32
2023-01-10T08:16:46.487Z,14.36
2023-01-10T08:19:12.912Z,14.34
2023-01-10T08:21:39.825Z,14.34
2023-01-10T08:24:07.867Z,14.33
2023-01-10T08:26:34.294Z,14.36
2023-01-10T08:29:00.661Z,14.35
2023-01-10T08:31:27.068Z,14.32
2023-01-10T08:33:53.906Z,14.30
2023-01-10T08:36:20.858Z,14.34
2023-01-10T08:38:47.669Z,14.31
2023-01-10T08:41:14.147Z,14.32
2023-01-10T08:43:40.933Z,14.35
2023-01-10T08:46:08.345Z,14.31
2023-01-10T08:48:35.206Z,14.35
2023-01-10T08:51:01.951Z,14.34
2023-01-10T08:53:28.451Z,14.31
2023-01-10T08:55:54.941Z,14.33
2023-01-10T08:58:21.470Z,14.34
2023-01-10T09:00:48.148Z,14.34
2023-01-10T09:03:15.543Z,14.32
2023-01-10T09:05:42.406Z,14.36
2023-01-10T09:08:09.618Z,14.33
2023-01-10T09:10:36.211Z,14.33
2023-01-10T09:13:02.646Z,14.31
2023-01-10T09:15:29.634Z,14.31
2023-01-10T09:17:56.448Z,14.32
2023-01-10T09:20:23.004Z,14.31
2023-01-10T09:22:49.435Z,14.31
2023-01-10T09:25:16.149Z,14.30
2023-01-10T09:27:42.796Z,14.33
2023-01-10T09:30:10.013Z,14.33
2023-01-10T09:32:37.390Z,14.31
2023-01-10T09:35:04.405Z,14.33
2023-01-10T09:37:31.108Z,14.28
2023-01-10T09:39:57.553Z,14.32
2023-01-10T09:42:24.634Z,14.31
2023-01-10T09:44:51.488Z,14.32
2023-01-10T09:47:22.851Z,14.31
2023-01-10T09:49:49.914Z,14.27
2023-01-10T09:52:16.325Z,14.30
2023-01-10T09:54:42.724Z,14.29
2023-01-10T09:57:09.574Z,14.31
2023-01-10T09:59:36.563Z,14.28
2023-01-10T10:02:02.996Z,14.28
2023-01-10T10:04:29.477Z,14.30
2023-01-10T10:06:56.324Z,14.30
2023-01-10T10:09:22.853Z,14.30
2023-01-10T10:11:49.725Z,14.27
2023-01-10T10:14:16.143Z,14.29
2023-01-10T10:16:42.935Z,14.29
2023-01-10T10:19:09.446Z,14.30
2023-01-10T10:21:36.422Z,14.31
2023-01-10T10:24:03.493Z,14.31
2023-01-10T10:26:30.293Z,14.29
2023-01-10T10:28:57.053Z,14.27
2023-01-10T10:31:23.672Z,14.28
2023-01-10T10:33:50.610Z,14.26
2023-01-10T10:36:17.568Z,14.29
2023-01-10T10:38:44.305Z,14.25
2023-01-10T10:41:10.880Z,14.27
2023-01-10T10:43:37.836Z,14.27
2023-01-10T10:46:04.456Z,14.22
2023-01-10T10:48:31.517Z,14.27
2023-01-10T10:50:58.360Z,14.27
2023-01-10T10:53:24.834Z,14.29
2023-01-10T10:55:51.300Z,14.29
2023-01-10T10:58:17.654Z,14.28
2023-01-10T11:00:44.739Z,14.30
2023-01-10T11:03:11.578Z,14.34
2023-01-10T11:05:38.606Z,14.27
2023-01-10T11:08:05.111Z,14.29
2023-01-10T11:10:31.460Z,14.30
2023-01-10T11:12:58.110Z,14.29
2023-01-10T11:15:24.686Z,14.28
2023-01-10T11:17:51.220Z,14.27
2023-01-10T11:20:18.504Z,14.28
2023-01-10T11:22:45.003Z,14.31
2023-01-10T11:25:11.447Z,14.31
2023-01-10T11:27:39.004Z,14.26
2023-01-10T11:30:05.431Z,14.28
2023-01-10T11:32:31.821Z,14.31
2023-01-10T11:34:58.506Z,14.29
2023-01-10T11:37:24.859Z,14.28
2023-01-10T11:39:51.200Z,14.27
2023-01-10T11:42:17.739Z,14.27
2023-01-10T11:44:44.488Z,14.27
2023-01-10T11:47:10.942Z,14.28
2023-01-10T11:49:37.411Z,14.27
2023-01-10T11:52:03.774Z,14.26
2023-01-10T11:54:30.227Z,14.29
2023-01-10T11:56:59.478Z,14.28
2023-01-10T11:59:26.222Z,14.24
2023-01-10T12:01:52.850Z,14.27
2023-01-10T12:04:19.296Z,14.25
2023-01-10T12:06:45.799Z,14.27
2023-01-10T12:09:12.280Z,14.26
2023-01-10T12:11:38.601Z,14.28
2023-01-10T12:14:05.123Z,14.26
2023-01-10T12:16:32.229Z,14.26
2023-01-10T12:18:58.628Z,14.26
2023-01-10T12:21:25.818Z,14.28
2023-01-10T12:23:52.212Z,14.27
2023-01-10T12:26:18.787Z,14.26
2023-01-10T12:28:45.861Z,14.27
2023-01-10T12:31:12.221Z,14.27
2023-01-10T12:33:38.981Z,14.22
2023-01-10T12:36:05.685Z,14.24
2023-01-10T12:38:33.177Z,14.28
2023-01-10T12:40:59.676Z,14.35
2023-01-10T12:43:26.648Z,14.30
2023-01-10T12:45:53.724Z,14.38
2023-01-10T12:48:20.880Z,14.48
2023-01-10T12:50:47.664Z,14.51
2023-01-10T12:53:14.671Z,14.55
2023-01-10T12:55:40.972Z,14.58
2023-01-10T12:58:07.854Z,14.60
2023-01-10T13:00:40.552Z,14.62
2023-01-10T13:03:13.910Z,14.67
2023-01-10T13:05:40.308Z,14.71
2023-01-10T13:08:07.066Z,14.79
2023-01-10T13:10:33.415Z,14.83
2023-01-10T13:13:00.223Z,14.88
2023-01-10T13:15:27.008Z,14.95
2023-01-10T13:17:54.156Z,14.97
2023-01-10T13:20:20.589Z,15.05
2023-01-10T13:22:47.515Z,15.08
2023-01-10T13:25:15.657Z,15.14
2023-01-10T13:27:42.281Z,15.17
2023-01-10T13:30:08.775Z,15.22
2023-01-10T13:32:35.880Z,15.29
2023-01-10T13:35:03.309Z,15.31
2023-01-10T13:37:30.076Z,15.34
2023-01-10T13:39:56.966Z,15.38
2023-01-10T13:42:23.740Z,15.39
2023-01-10T13:44:50.647Z,15.40
2023-01-10T13:47:17.079Z,15.45
2023-01-10T13:49:43.521Z,15.46
2023-01-10T13:52:10.348Z,15.54
2023-01-10T13:54:36.978Z,15.59
2023-01-10T13:57:03.576Z,15.68
2023-01-10T13:59:30.097Z,15.71
2023-01-10T14:01:56.766Z,15.78
2023-01-10T14:04:24.090Z,15.88
2023-01-10T14:06:50.497Z,15.94
2023-01-10T14:09:18.554Z,16.02
2023-01-10T14:11:46.232Z,16.11
2023-01-10T14:14:13.318Z,16.20
2023-01-10T14:19:06.673Z,16.35
2023-01-10T14:21:33.064Z,16.44
2023-01-10T14:23:59.441Z,16.51
2023-01-10T14:26:26.390Z,16.62
2023-01-10T14:28:53.452Z,16.71
2023-01-10T14:31:20.000Z,16.79
2023-01-10T14:33:46.585Z,16.82
2023-01-10T14:36:13.135Z,16.91
2023-01-10T14:38:39.532Z,16.96
2023-01-10T14:41:06.377Z,17.01
2023-01-10T14:43:33.343Z,17.03
2023-01-10T14:45:59.934Z,17.07
2023-01-10T14:48:26.581Z,17.12
2023-01-10T14:50:52.975Z,17.16
2023-01-10T14:53:19.683Z,17.18
2023-01-10T14:55:46.572Z,17.21
2023-01-10T14:58:13.652Z,17.23
2023-01-10T15:00:40.254Z,17.23
2023-01-10T15:03:06.995Z,17.27
2023-01-10T15:05:33.565Z,17.27
2023-01-10T15:08:00.322Z,17.30
2023-01-10T15:10:26.827Z,17.31
2023-01-10T15:12:53.231Z,17.32
2023-01-10T15:15:19.736Z,17.35
2023-01-10T15:17:46.164Z,17.40
2023-01-10T15:20:13.281Z,17.41
2023-01-10T15:22:40.246Z,17.41
2023-01-10T15:25:06.638Z,17.42
2023-01-10T15:27:33.036Z,17.38
2023-01-10T15:29:59.460Z,17.36
2023-01-10T15:32:25.807Z,17.35
2023-01-10T15:34:52.528Z,17.32
2023-01-10T15:37:19.855Z,17.30
2023-01-10T15:39:46.841Z,17.29
2023-01-10T15:42:13.179Z,17.33
2023-01-10T15:44:39.986Z,17.36
2023-01-10T15:47:06.343Z,17.42
2023-01-10T15:49:32.722Z,17.43
2023-01-10T15:51:59.123Z,17.50
2023-01-10T15:54:25.543Z,17.53
2023-01-10T15:56:52.676Z,17.58
2023-01-10T15:59:19.763Z,17.62
2023-01-10T16:01:46.822Z,17.71
2023-01-10T16:04:13.706Z,17.75
2023-01-10T16:06:40.141Z,17.81
2023-01-10T16:09:06.750Z,17.86
2023-01-10T16:11:33.078Z,17.93
2023-01-10T16:13:59.517Z,17.98
2023-01-10T16:16:25.858Z,18.09
2023-01-10T16:18:52.990Z,18.14
2023-01-10T16:21:19.430Z,18.22
2023-01-10T16:23:45.917Z,18.30
2023-01-10T16:26:12.533Z,18.36
2023-01-10T16:28:39.433Z,18.41
2023-01-10T16:31:06.855Z,18.48
2023-01-10T16:33:33.453Z,18.58
2023-01-10T16:36:00.338Z,18.64
2023-01-10T16:38:26.673Z,18.69
2023-01-10T16:40:53.150Z,18.76
2023-01-10T16:43:20.158Z,18.87
2023-01-10T16:45:47.170Z,18.94
2023-01-10T16:48:13.798Z,19.01
2023-01-10T16:50:40.663Z,19.06
2023-01-10T16:53:07.632Z,19.14
2023-01-10T16:55:34.487Z,19.20
2023-01-10T16:58:00.965Z,19.29
2023-01-10T17:00:27.523Z,19.36
2023-01-10T17:02:53.920Z,19.41
2023-01-10T17:05:20.273Z,19.47
2023-01-10T17:07:47.415Z,19.53
2023-01-10T17:10:14.303Z,19.60
2023-01-10T17:12:41.182Z,19.64
2023-01-10T17:15:07.757Z,19.70
2023-01-10T17:17:34.219Z,19.72
2023-01-10T17:20:01.172Z,19.79
2023-01-10T17:22:28.198Z,19.82
2023-01-10T17:24:54.549Z,19.88
2023-01-10T17:27:21.113Z,19.91
2023-01-10T17:29:48.055Z,19.96
2023-01-10T17:32:14.505Z,19.90
2023-01-10T17:34:41.467Z,19.74
2023-01-10T17:37:08.639Z,19.63
2023-01-10T17:39:36.271Z,19.57
2023-01-10T17:42:03.080Z,19.54
2023-01-10T17:44:29.456Z,19.51
2023-01-10T17:46:56.585Z,19.53
2023-01-10T17:49:23.139Z,19.55
2023-01-10T17:51:49.561Z,19.54
2023-01-10T17:54:16.373Z,19.50
2023-01-10T17:56:43.180Z,19.49
2023-01-10T17:59:10.088Z,19.48
2023-01-10T18:01:36.736Z,19.48
2023-01-10T18:04:03.672Z,19.52
2023-01-10T18:06:30.145Z,19.50
2023-01-10T18:08:56.715Z,19.57
2023-01-10T18:11:23.033Z,19.58
2023-01-10T18:13:49.677Z,19.55
2023-01-10T18:16:16.341Z,19.54
2023-01-10T18:18:43.063Z,19.54
2023-01-10T18:21:09.476Z,19.53
2023-01-10T18:23:35.969Z,19.53
2023-01-10T18:26:02.726Z,19.52
2023-01-10T18:28:40.478Z,19.52
2023-01-10T18:31:07.124Z,19.49
2023-01-10T18:33:34.129Z,19.48
2023-01-10T18:36:01.116Z,19.51
2023-01-10T18:38:27.644Z,19.49
2023-01-10T18:40:54.836Z,19.51
2023-01-10T18:43:21.740Z,19.49
2023-01-10T18:45:48.117Z,19.48
2023-01-10T18:48:14.990Z,19.47
2023-01-10T18:50:41.503Z,19.45
2023-01-10T18:53:08.704Z,19.44
2023-01-10T18:55:35.940Z,19.43
2023-01-10T18:58:02.696Z,19.42
2023-01-10T19:00:29.552Z,19.44
2023-01-10T19:02:56.459Z,19.45
2023-01-10T19:05:23.314Z,19.41
2023-01-10T19:07:50.254Z,19.42
2023-01-10T19:10:17.444Z,19.45
2023-01-10T19:12:43.903Z,19.48
2023-01-10T19:15:11.370Z,19.46
2023-01-10T19:17:38.432Z,19.40
2023-01-10T19:20:05.073Z,19.36
2023-01-10T19:22:32.573Z,19.36
2023-01-10T19:24:58.977Z,19.34
2023-01-10T19:27:25.395Z,19.34
2023-01-10T19:29:51.937Z,19.31
2023-01-10T19:32:18.322Z,19.31
2023-01-10T19:34:46.427Z,19.30
2023-01-10T19:37:13.895Z,19.32
2023-01-10T19:39:40.482Z,19.30
2023-01-10T19:42:06.881Z,19.28
2023-01-10T19:44:33.325Z,19.32
2023-01-10T19:46:59.768Z,19.30
2023-01-10T19:49:26.226Z,19.30
2023-01-10T19:51:52.976Z,19.27
2023-01-10T19:54:20.356Z,19.25
2023-01-10T19:56:47.795Z,19.23
2023-01-10T19:59:14.384Z,19.23
2023-01-10T20:01:41.596Z,19.22
2023-01-10T20:04:07.912Z,19.20
2023-01-10T20:06:35.237Z,19.16
2023-01-10T20:09:02.166Z,19.15
2023-01-10T20:11:28.859Z,19.16
2023-01-10T20:13:55.795Z,19.17
2023-01-10T20:16:22.422Z,19.14
2023-01-10T20:18:49.177Z,19.13
2023-01-10T20:21:16.450Z,19.11
2023-01-10T20:23:42.785Z,19.15
2023-01-10T20:26:09.980Z,19.12
2023-01-10T20:28:36.523Z,19.08
2023-01-10T20:31:02.989Z,19.20
2023-01-10T20:33:29.367Z,19.18
2023-01-10T20:35:55.842Z,19.21
2023-01-10T20:38:22.851Z,19.22
2023-01-10T20:40:49.394Z,19.24
2023-01-10T20:43:15.976Z,19.25
2023-01-10T20:45:42.389Z,19.25
2023-01-10T20:48:09.182Z,19.23
2023-01-10T20:50:36.072Z,19.20
2023-01-10T20:53:03.140Z,19.19
2023-01-10T20:55:29.874Z,19.19
2023-01-10T20:57:56.929Z,19.41
2023-01-10T21:00:23.460Z,19.26
2023-01-10T21:02:50.378Z,19.18
2023-01-10T21:05:16.975Z,19.20
2023-01-10T21:07:43.611Z,19.20
2023-01-10T21:10:10.480Z,19.14
2023-01-10T21:12:37.441Z,19.05
2023-01-10T21:15:04.242Z,18.97
2023-01-10T21:17:30.653Z,18.90
2023-01-10T21:19:58.148Z,18.98
2023-01-10T21:22:25.078Z,19.09
2023-01-10T21:24:51.724Z,19.12
2023-01-10T21:27:18.890Z,19.13
2023-01-10T21:29:45.432Z,19.17
2023-01-10T21:32:11.855Z,19.19
2023-01-10T21:34:38.346Z,19.21
2023-01-10T21:37:05.029Z,19.21
2023-01-10T21:39:31.704Z,19.19
2023-01-10T21:41:58.668Z,19.18
2023-01-10T21:44:25.144Z,19.18
2023-01-10T21:46:52.030Z,19.18
2023-01-10T21:49:18.504Z,19.19
2023-01-10T21:51:44.944Z,19.18
2023-01-10T21:54:11.394Z,19.14
2023-01-10T21:56:37.752Z,19.08
2023-01-10T21:59:04.161Z,19.07
2023-01-10T22:01:30.606Z,19.07
2023-01-10T22:03:57.196Z,19.09
2023-01-10T22:06:23.640Z,19.05
2023-01-10T22:08:50.099Z,19.03
2023-01-10T22:11:16.652Z,18.80
2023-01-10T22:13:43.022Z,18.84
2023-01-10T22:16:09.554Z,18.83
2023-01-10T22:18:36.101Z,18.82
2023-01-10T22:21:02.815Z,18.82
2023-01-10T22:23:29.403Z,18.80
2023-01-10T22:25:55.984Z,18.81
2023-01-10T22:28:22.375Z,18.78
2023-01-10T22:30:48.801Z,18.77
2023-01-10T22:33:15.215Z,18.75
2023-01-10T22:35:41.690Z,18.73
2023-01-10T22:38:08.279Z,18.71
2023-01-10T22:40:34.632Z,18.71
2023-01-10T22:43:01.159Z,18.70
2023-01-10T22:45:27.854Z,18.68
2023-01-10T22:47:55.235Z,18.65
2023-01-10T22:50:21.643Z,18.63
2023-01-10T22:52:48.284Z,18.60
2023-01-10T22:55:14.763Z,18.58
2023-01-10T22:57:47.277Z,18.56
2023-01-10T23:00:13.985Z,18.52
2023-01-10T23:02:40.706Z,18.49
2023-01-10T23:05:07.314Z,18.45
2023-01-10T23:07:33.755Z,18.43
2023-01-10T23:10:00.136Z,18.41
2023-01-10T23:12:26.968Z,18.39
2023-01-10T23:14:54.743Z,18.37
2023-01-10T23:17:22.019Z,18.34
2023-01-10T23:19:49.030Z,18.32
2023-01-10T23:22:15.677Z,18.30
2023-01-10T23:24:42.985Z,18.28
2023-01-10T23:27:09.924Z,18.25
2023-01-10T23:29:36.221Z,18.23
2023-01-10T23:32:03.199Z,18.20
2023-01-10T23:34:29.696Z,18.18
2023-01-10T23:36:56.466Z,18.14
2023-01-10T23:39:23.345Z,18.12
2023-01-10T23:41:50.383Z,18.10
2023-01-10T23:44:16.819Z,18.06
2023-01-10T23:46:43.200Z,18.03
2023-01-10T23:49:10.102Z,18.02
2023-01-10T23:51:36.869Z,18.00
2023-01-10T23:54:03.616Z,17.98
2023-01-10T23:56:30.070Z,17.97
2023-01-10T23:58:56.535Z,17.96
